Time;durP1;ratioP1;P1;durP2;ratioP2;P2;SDS_P1;SDS_P2;PMS_P1;PMS_P2;Temp;Humidity;BMP_temperature;BMP_pressure;BME280_temperature;BME280_humidity;BME280_pressure;Samples;Min_cycle;Max_cycle;Signal;HPM_P1;HPM_P2
2023/06/05 00:01:59;;;;;;;8.20;5.70;;;;;;;11.36;73.34;99392.61;109278;1254;60329;-71
2023/06/05 00:04:27;;;;;;;7.90;5.30;;;;;;;11.36;74.52;99390.29;109075;1254;62816;-71
2023/06/05 00:06:54;;;;;;;8.30;5.90;;;;;;;11.37;75.18;99389.15;109305;1254;58984;-71
2023/06/05 00:09:21;;;;;;;10.50;5.70;;;;;;;11.38;75.55;99387.66;109312;1254;59115;-72
2023/06/05 00:11:48;;;;;;;10.80;6.70;;;;;;;11.37;76.24;99387.00;109315;1254;67163;-72
2023/06/05 00:14:15;;;;;;;9.10;6.10;;;;;;;11.37;76.82;99385.23;109292;1254;61006;-73
2023/06/05 00:16:41;;;;;;;9.10;6.30;;;;;;;11.36;77.17;99387.42;109272;1254;64052;-70
2023/06/05 00:19:08;;;;;;;11.00;6.90;;;;;;;11.35;77.53;99387.50;109245;1254;59017;-72
2023/06/05 00:21:35;;;;;;;8.80;6.50;;;;;;;11.33;77.85;99384.74;109287;1254;59109;-72
2023/06/05 00:24:01;;;;;;;9.60;7.00;;;;;;;11.34;78.34;99384.88;109249;1254;66033;-72
2023/06/05 00:26:28;;;;;;;12.50;8.00;;;;;;;11.33;78.80;99382.64;109291;1254;59877;-72
2023/06/05 00:28:55;;;;;;;10.40;7.10;;;;;;;11.28;79.30;99381.88;109253;1254;65125;-71
2023/06/05 00:31:21;;;;;;;7.50;6.30;;;;;;;11.24;79.19;99380.55;109245;1254;58973;-71
2023/06/05 00:33:49;;;;;;;10.80;7.00;;;;;;;11.22;79.02;99381.02;109318;1254;59014;-72
2023/06/05 00:36:17;;;;;;;9.00;6.50;;;;;;;11.19;79.06;99382.28;109267;1254;66967;-71
2023/06/05 00:38:45;;;;;;;8.80;6.30;;;;;;;11.15;79.06;99382.00;109267;1254;61305;-71
2023/06/05 00:41:11;;;;;;;9.40;6.70;;;;;;;11.10;79.13;99381.21;109258;1254;65146;-72
2023/06/05 00:43:38;;;;;;;9.30;6.50;;;;;;;11.06;79.55;99382.02;109274;1254;58932;-71
2023/06/05 00:46:05;;;;;;;9.50;6.30;;;;;;;11.00;79.98;99380.41;109316;1254;59019;-72
2023/06/05 00:48:33;;;;;;;11.20;6.80;;;;;;;10.96;80.23;99378.17;109272;1254;66654;-71
2023/06/05 00:51:00;;;;;;;8.70;6.20;;;;;;;10.92;80.47;99378.08;109280;1254;60746;-71
2023/06/05 00:53:30;;;;;;;10.90;7.30;;;;;;;10.88;80.64;99380.31;109067;1254;64177;-72
2023/06/05 00:55:57;;;;;;;9.90;6.40;;;;;;;10.84;80.93;99379.84;109269;1254;59037;-72
2023/06/05 00:58:25;;;;;;;9.60;6.30;;;;;;;10.81;81.51;99378.79;109304;1254;58980;-70
2023/06/05 01:00:53;;;;;;;10.00;5.60;;;;;;;10.77;81.82;99382.77;109289;1254;65960;-72
2023/06/05 01:03:22;;;;;;;12.10;6.80;;;;;;;10.72;82.33;99381.29;109264;1254;61228;-73
2023/06/05 01:05:49;;;;;;;10.50;6.80;;;;;;;10.67;82.99;99382.27;109251;1254;64867;-71
2023/06/05 01:08:25;;;;;;;13.80;7.00;;;;;;;10.63;83.66;99376.87;109030;1254;59070;-71
2023/06/05 01:10:52;;;;;;;8.20;6.80;;;;;;;10.61;84.77;99372.91;109257;1255;59085;-71
2023/06/05 01:13:26;;;;;;;7.90;6.60;;;;;;;10.58;85.35;99368.27;109116;1254;67227;-70
2023/06/05 01:15:54;;;;;;;9.20;6.30;;;;;;;10.55;85.24;99367.92;109305;1254;60155;-71
2023/06/05 01:18:23;;;;;;;8.70;6.20;;;;;;;10.51;85.74;99368.48;109279;1254;65182;-71
2023/06/05 01:20:50;;;;;;;10.80;6.70;;;;;;;10.47;86.65;99370.02;109304;1254;59240;-71
2023/06/05 01:23:17;;;;;;;14.30;12.90;;;;;;;10.44;88.38;99370.56;109260;1255;59071;-71
2023/06/05 01:25:44;;;;;;;18.70;17.20;;;;;;;10.39;89.61;99370.33;109298;1254;66088;-71
2023/06/05 01:28:16;;;;;;;17.40;14.90;;;;;;;10.33;89.93;99369.81;109266;1254;60704;-71
2023/06/05 01:31:00;;;;;;;8.90;7.30;;;;;;;10.29;89.36;99370.05;109277;1254;64138;-71
2023/06/05 01:33:41;;;;;;;9.50;6.20;;;;;;;10.24;89.35;99374.37;109273;1254;58990;-71
2023/06/05 01:36:11;;;;;;;8.30;6.50;;;;;;;10.17;89.85;99374.95;109283;1255;59168;-71
2023/06/05 01:38:40;;;;;;;8.60;7.20;;;;;;;10.06;90.14;99374.89;109286;1254;67019;-72
2023/06/05 01:41:10;;;;;;;9.00;7.00;;;;;;;9.99;90.37;99371.94;109029;1254;61171;-71
2023/06/05 01:43:38;;;;;;;9.50;6.70;;;;;;;9.96;91.27;99372.29;108986;1254;62967;-72
2023/06/05 01:46:08;;;;;;;10.30;7.90;;;;;;;9.94;92.19;99367.60;109248;1254;59093;-72
2023/06/05 01:48:35;;;;;;;7.60;6.80;;;;;;;9.92;92.89;99369.01;109315;1254;58916;-71
2023/06/05 01:51:02;;;;;;;10.70;7.50;;;;;;;9.90;92.73;99367.17;109264;1254;66148;-71
2023/06/05 01:53:29;;;;;;;9.80;7.20;;;;;;;9.88;93.60;99368.11;109279;1254;60081;-72
2023/06/05 01:55:57;;;;;;;10.60;6.70;;;;;;;9.88;94.58;99367.41;109275;1255;63875;-72
2023/06/05 01:58:24;;;;;;;8.10;6.80;;;;;;;9.87;94.01;99368.36;109285;1254;58987;-72
2023/06/05 02:00:56;;;;;;;9.10;7.00;;;;;;;9.84;93.70;99369.05;109322;1253;58971;-72
2023/06/05 02:03:24;;;;;;;8.70;7.00;;;;;;;9.81;93.64;99366.21;109442;1253;66054;-71
2023/06/05 02:05:54;;;;;;;8.20;6.50;;;;;;;9.78;93.75;99366.98;109439;1253;61022;-72
2023/06/05 02:08:22;;;;;;;;;;;;;;;9.74;93.84;99365.39;109406;1253;64781;-72
2023/06/05 02:10:49;;;;;;;6.80;5.80;;;;;;;9.69;94.27;99364.45;108994;1253;59035;-70
2023/06/05 02:13:16;;;;;;;10.30;7.10;;;;;;;9.66;94.33;99368.00;109399;1253;59260;-72
2023/06/05 02:15:44;;;;;;;8.60;6.40;;;;;;;9.62;94.34;99372.48;109426;1254;66684;-72
2023/06/05 02:18:12;;;;;;;8.80;6.30;;;;;;;9.58;94.78;99372.34;109472;1253;61112;-73
2023/06/05 02:20:41;;;;;;;7.50;6.20;;;;;;;9.53;95.31;99375.85;109448;1253;65425;-72
2023/06/05 02:23:08;;;;;;;8.20;6.90;;;;;;;9.48;95.67;99381.25;109118;1253;59306;-72
2023/06/05 02:25:34;;;;;;;6.90;6.10;;;;;;;9.45;95.96;99385.84;109461;1253;58957;-71
2023/06/05 02:28:01;;;;;;;9.10;6.40;;;;;;;9.44;96.60;99380.42;109105;1253;66672;-72
2023/06/05 02:30:28;;;;;;;8.60;6.40;;;;;;;9.44;97.81;99375.99;109446;1253;61057;-73
2023/06/05 02:33:00;;;;;;;10.10;6.20;;;;;;;9.42;98.30;99373.77;109394;1253;65083;-73
2023/06/05 02:35:27;;;;;;;8.80;5.90;;;;;;;9.42;98.50;99377.85;109040;1253;59271;-71
2023/06/05 02:37:53;;;;;;;9.90;7.40;;;;;;;9.43;98.86;99378.36;109420;1254;59023;-73
2023/06/05 02:40:20;;;;;;;10.00;6.90;;;;;;;9.44;99.22;99375.80;109454;1253;67179;-72
2023/06/05 02:42:47;;;;;;;11.90;7.10;;;;;;;9.45;99.80;99374.14;109431;1253;60129;-72
2023/06/05 02:45:13;;;;;;;9.30;6.40;;;;;;;9.45;99.90;99373.06;109424;1253;65219;-71
2023/06/05 02:47:40;;;;;;;8.10;6.80;;;;;;;9.47;99.93;99375.63;109415;1253;59170;-72
2023/06/05 02:50:08;;;;;;;11.10;7.10;;;;;;;9.49;100.00;99373.60;109451;1253;59071;-71
2023/06/05 02:52:35;;;;;;;9.70;6.40;;;;;;;9.51;100.00;99376.13;109103;1253;66241;-72
2023/06/05 02:55:03;;;;;;;10.90;6.80;;;;;;;9.52;100.00;99370.72;109455;1253;60441;-72
2023/06/05 02:57:30;;;;;;;9.10;6.80;;;;;;;9.55;100.00;99372.33;109399;1253;64037;-73
2023/06/05 02:59:56;;;;;;;9.80;7.10;;;;;;;9.58;100.00;99374.16;109429;1252;59056;-71
2023/06/05 03:02:25;;;;;;;9.20;7.50;;;;;;;9.60;100.00;99373.65;109430;1253;59008;-72
2023/06/05 03:04:53;;;;;;;9.70;7.80;;;;;;;9.62;100.00;99373.16;109428;1253;66059;-71
2023/06/05 03:07:22;;;;;;;11.60;8.20;;;;;;;9.65;100.00;99374.58;109279;1253;60851;-72
2023/06/05 03:09:49;;;;;;;11.80;8.50;;;;;;;9.69;100.00;99370.84;109454;1253;64208;-72
2023/06/05 03:12:15;;;;;;;11.60;7.80;;;;;;;9.73;100.00;99372.74;109414;1253;58956;-72
2023/06/05 03:14:42;;;;;;;9.70;7.00;;;;;;;9.77;100.00;99374.30;109428;1253;59038;-72
2023/06/05 03:17:08;;;;;;;11.90;7.80;;;;;;;9.82;100.00;99374.01;109471;1253;65744;-72
2023/06/05 03:19:35;;;;;;;10.80;7.10;;;;;;;9.89;100.00;99372.36;109432;1253;60124;-72
2023/06/05 03:22:02;;;;;;;10.90;7.20;;;;;;;9.98;100.00;99373.45;109435;1253;65019;-72
2023/06/05 03:24:28;;;;;;;14.00;7.20;;;;;;;10.24;100.00;99371.91;109230;1253;59033;-72
2023/06/05 03:26:55;;;;;;;10.40;6.10;;;;;;;11.07;99.83;99364.70;109447;1253;59033;-71
2023/06/05 03:29:22;;;;;;;10.90;6.90;;;;;;;11.94;96.45;99361.24;109396;1253;65912;-71
2023/06/05 03:31:48;;;;;;;11.10;7.10;;;;;;;12.71;92.10;99362.41;109460;1253;60906;-73
2023/06/05 03:34:16;;;;;;;9.20;6.10;;;;;;;13.44;88.19;99359.16;109029;1253;64298;-72
2023/06/05 03:36:43;;;;;;;9.60;6.70;;;;;;;14.17;84.92;99353.94;109438;1253;58993;-71
2023/06/05 03:39:09;;;;;;;10.80;7.70;;;;;;;14.85;81.95;99354.23;109439;1253;59067;-72
2023/06/05 03:41:36;;;;;;;9.20;5.90;;;;;;;15.54;78.91;99350.70;109433;1253;67287;-70
2023/06/05 03:44:03;;;;;;;10.30;6.30;;;;;;;16.18;76.30;99346.30;109529;1253;61676;-73
2023/06/05 03:46:30;;;;;;;9.10;6.10;;;;;;;16.77;74.15;99351.84;109405;1253;65182;-72
2023/06/05 03:49:05;;;;;;;9.00;5.80;;;;;;;17.33;71.71;99352.27;109416;1253;58933;-71
2023/06/05 03:51:31;;;;;;;5.60;5.00;;;;;;;17.90;69.52;99349.54;109438;1253;59333;-72
2023/06/05 03:53:59;;;;;;;6.10;5.20;;;;;;;18.37;67.53;99343.58;109425;1253;67272;-72
2023/06/05 03:56:34;;;;;;;7.00;5.10;;;;;;;18.86;65.96;99343.60;109463;1253;59823;-74
2023/06/05 03:59:18;;;;;;;5.80;4.70;;;;;;;19.47;64.19;99344.88;109451;1253;65270;-72
2023/06/05 04:01:45;;;;;;;6.30;4.60;;;;;;;20.05;62.18;99342.05;109435;1253;59060;-73
2023/06/05 04:04:12;;;;;;;5.80;4.70;;;;;;;20.52;60.52;99339.46;109417;1253;58942;-73
2023/06/05 04:06:40;;;;;;;4.60;4.20;;;;;;;20.88;58.67;99335.70;109452;1253;67237;-72
2023/06/05 04:09:13;;;;;;;5.80;4.40;;;;;;;21.22;57.29;99338.45;109449;1253;61161;-72
2023/06/05 04:11:41;;;;;;;4.80;4.40;;;;;;;21.60;55.77;99341.46;109399;1253;65212;-71
2023/06/05 04:14:09;;;;;;;5.40;4.50;;;;;;;21.86;54.55;99340.82;109417;1253;59017;-72
2023/06/05 04:16:40;;;;;;;6.20;4.70;;;;;;;22.04;53.07;99338.20;109426;1253;59422;-71
2023/06/05 04:19:09;;;;;;;6.70;4.80;;;;;;;21.93;52.12;99334.65;109466;1253;66075;-72
2023/06/05 04:21:37;;;;;;;5.60;4.10;;;;;;;21.97;51.45;99333.69;109038;1253;60782;-73
2023/06/05 04:24:10;;;;;;;5.20;4.30;;;;;;;22.14;50.49;99334.59;109434;1253;64159;-72
2023/06/05 04:26:41;;;;;;;5.10;4.40;;;;;;;22.35;49.94;99336.63;109375;1253;59052;-73
2023/06/05 04:29:13;;;;;;;4.10;3.60;;;;;;;22.56;48.98;99336.27;109458;1253;59168;-72
2023/06/05 04:31:41;;;;;;;5.90;4.30;;;;;;;22.58;48.56;99337.13;109430;1253;67097;-72
2023/06/05 04:34:08;;;;;;;8.90;3.70;;;;;;;22.83;47.15;99336.91;109406;1253;61092;-72
2023/06/05 04:36:36;;;;;;;5.00;3.80;;;;;;;22.91;46.71;99337.95;109385;1253;64714;-71
2023/06/05 04:39:04;;;;;;;4.00;3.70;;;;;;;23.14;46.74;99337.87;109390;1253;59066;-71
2023/06/05 04:41:32;;;;;;;4.40;3.50;;;;;;;23.46;45.86;99339.81;109459;1253;59085;-72
2023/06/05 04:44:02;;;;;;;9.60;3.60;;;;;;;23.68;45.47;99334.42;109496;1253;67351;-71
2023/06/05 04:46:28;;;;;;;3.50;3.20;;;;;;;23.89;44.31;99334.39;109437;1253;60961;-71
2023/06/05 04:48:57;;;;;;;5.70;3.40;;;;;;;23.97;43.90;99334.52;109427;1253;65300;-72
2023/06/05 04:51:24;;;;;;;4.20;3.60;;;;;;;24.04;43.25;99333.54;109466;1253;59012;-72
2023/06/05 04:53:52;;;;;;;3.80;3.50;;;;;;;24.14;43.12;99329.27;109062;1253;59075;-71
2023/06/05 04:56:22;;;;;;;5.90;3.60;;;;;;;24.31;42.53;99329.82;109462;1253;67225;-71
2023/06/05 04:58:50;;;;;;;4.50;3.40;;;;;;;24.30;41.88;99331.66;109437;1253;61187;-71
2023/06/05 05:01:17;;;;;;;4.20;3.30;;;;;;;24.37;41.89;99335.38;109460;1253;65543;-72
2023/06/05 05:03:45;;;;;;;5.00;3.40;;;;;;;24.59;41.82;99340.85;109390;1253;58917;-72
2023/06/05 05:06:16;;;;;;;4.70;3.70;;;;;;;24.82;41.56;99337.81;109461;1253;59032;-72
2023/06/05 05:08:48;;;;;;;4.40;3.60;;;;;;;24.96;41.09;99342.98;109450;1253;66774;-72
2023/06/05 05:11:15;;;;;;;4.20;3.40;;;;;;;25.05;40.28;99338.70;109445;1253;60950;-72
2023/06/05 05:13:42;;;;;;;3.60;3.30;;;;;;;24.94;39.71;99344.75;109465;1253;65236;-72
2023/06/05 05:16:09;;;;;;;3.90;3.50;;;;;;;24.75;38.97;99344.13;109452;1253;59206;-72
2023/06/05 05:18:40;;;;;;;3.90;3.50;;;;;;;24.40;38.62;99343.07;109478;1253;59027;-71
2023/06/05 05:21:07;;;;;;;6.40;3.50;;;;;;;24.12;38.97;99342.06;109449;1253;66032;-72
2023/06/05 05:23:33;;;;;;;5.40;3.70;;;;;;;23.96;38.89;99341.17;109463;1253;59051;-72
2023/06/05 05:26:01;;;;;;;8.00;4.00;;;;;;;23.82;38.83;99342.84;109035;1253;63998;-71
2023/06/05 05:28:28;;;;;;;6.20;3.80;;;;;;;23.75;38.92;99343.48;108978;1253;58991;-71
2023/06/05 05:30:58;;;;;;;10.70;4.30;;;;;;;23.73;39.30;99340.25;109452;1253;59137;-71
2023/06/05 05:33:25;;;;;;;7.30;4.20;;;;;;;23.97;39.89;99339.39;109463;1253;65909;-72
2023/06/05 05:35:51;;;;;;;7.90;4.60;;;;;;;24.44;40.24;99340.55;109413;1253;60095;-71
2023/06/05 05:38:18;;;;;;;4.20;3.80;;;;;;;24.83;40.00;99343.50;109448;1253;64035;-71
2023/06/05 05:40:44;;;;;;;5.40;4.00;;;;;;;25.10;39.69;99343.66;109418;1253;58871;-71
2023/06/05 05:43:11;;;;;;;6.80;3.60;;;;;;;25.39;39.67;99344.20;109025;1253;59079;-71
2023/06/05 05:45:39;;;;;;;9.50;4.60;;;;;;;25.69;39.36;99346.39;109052;1253;66418;-71
2023/06/05 05:48:07;;;;;;;7.10;4.00;;;;;;;25.91;38.87;99340.98;109427;1254;60228;-71
2023/06/05 05:50:33;;;;;;;5.00;4.00;;;;;;;26.04;38.49;99339.54;109467;1253;64674;-71
2023/06/05 05:53:00;;;;;;;5.40;4.20;;;;;;;26.17;38.22;99335.52;109403;1253;58996;-72
2023/06/05 05:55:27;;;;;;;6.30;4.50;;;;;;;26.23;37.75;99340.58;109409;1257;58970;-71
2023/06/05 05:57:53;;;;;;;6.00;4.40;;;;;;;26.19;37.19;99341.46;109441;1253;66537;-72
2023/06/05 06:00:21;;;;;;;4.50;4.10;;;;;;;26.09;36.99;99343.96;109049;1253;61075;-72
2023/06/05 06:02:48;;;;;;;7.70;4.40;;;;;;;25.94;36.63;99344.94;109407;1253;63741;-71
2023/06/05 06:05:14;;;;;;;9.40;4.30;;;;;;;25.90;36.91;99346.11;109401;1254;59283;-72
2023/06/05 06:07:42;;;;;;;14.60;5.20;;;;;;;25.91;36.68;99346.46;109454;1254;59030;-71
2023/06/05 06:10:11;;;;;;;7.60;4.80;;;;;;;25.81;36.35;99353.30;109407;1253;66165;-72
2023/06/05 06:12:40;;;;;;;6.70;4.50;;;;;;;25.64;36.20;99355.65;109436;1254;61415;-72
2023/06/05 06:15:07;;;;;;;7.40;4.70;;;;;;;25.44;36.00;99351.35;109405;1253;63826;-72
2023/06/05 06:17:34;;;;;;;4.60;4.10;;;;;;;25.28;36.44;99353.71;109023;1253;59264;-70
2023/06/05 06:20:02;;;;;;;4.50;4.10;;;;;;;25.15;36.57;99354.39;109472;1253;59012;-72
2023/06/05 06:22:29;;;;;;;6.70;4.50;;;;;;;24.98;36.64;99354.01;109452;1253;66957;-71
2023/06/05 06:24:56;;;;;;;8.40;4.50;;;;;;;24.85;37.03;99352.41;109468;1253;61152;-71
2023/06/05 06:27:22;;;;;;;7.20;4.40;;;;;;;24.85;37.28;99350.50;109376;1253;65115;-71
2023/06/05 06:29:53;;;;;;;7.70;4.40;;;;;;;24.87;37.24;99349.22;109377;1253;59278;-72
2023/06/05 06:32:22;;;;;;;7.50;4.30;;;;;;;24.86;37.37;99348.25;109429;1253;59036;-71
2023/06/05 06:34:48;;;;;;;5.80;4.10;;;;;;;24.88;37.58;99350.96;109440;1253;67056;-72
2023/06/05 06:37:15;;;;;;;8.30;4.00;;;;;;;24.88;37.62;99351.26;109275;1259;61052;-72
2023/06/05 06:39:43;;;;;;;6.50;3.40;;;;;;;24.85;37.42;99353.85;109391;1253;65734;-71
2023/06/05 06:42:11;;;;;;;6.70;3.50;;;;;;;24.74;37.25;99356.65;108816;1253;767157;-72
2023/06/05 06:44:38;;;;;;;5.10;3.10;;;;;;;24.58;37.01;99356.77;109439;1253;59064;-72
2023/06/05 06:47:05;;;;;;;6.20;3.10;;;;;;;24.40;37.32;99351.41;109437;1253;67160;-72
2023/06/05 06:49:33;;;;;;;5.50;3.40;;;;;;;24.38;37.87;99353.59;109469;1253;60245;-71
2023/06/05 06:51:59;;;;;;;3.80;3.40;;;;;;;24.47;37.76;99350.34;109421;1253;65060;-71
2023/06/05 06:54:28;;;;;;;5.20;3.40;;;;;;;24.57;37.73;99348.31;109425;1254;58964;-71
2023/06/05 06:56:59;;;;;;;3.70;3.20;;;;;;;24.71;37.78;99344.45;109422;1253;58989;-71
2023/06/05 06:59:25;;;;;;;6.30;3.60;;;;;;;24.77;37.94;99348.81;109484;1253;67050;-70
2023/06/05 07:02:15;;;;;;;7.40;3.50;;;;;;;24.92;38.36;99349.33;109406;1253;60018;-71
2023/06/05 07:04:43;;;;;;;;;;;;;;;25.05;37.52;99349.99;108919;1253;62929;-70
2023/06/05 07:07:12;;;;;;;4.70;3.30;;;;;;;24.89;37.09;99352.58;109380;1253;58960;-71
2023/06/05 07:09:39;;;;;;;4.00;3.00;;;;;;;24.76;37.29;99351.81;109398;1254;59089;-71
2023/06/05 07:12:08;;;;;;;5.10;2.90;;;;;;;24.85;37.45;99353.61;109387;1253;67012;-72
2023/06/05 07:14:35;;;;;;;4.40;3.10;;;;;;;24.94;37.70;99350.30;109452;1254;61147;-71
2023/06/05 07:17:02;;;;;;;5.60;3.20;;;;;;;25.09;38.17;99351.66;109441;1254;65295;-71
2023/06/05 07:19:33;;;;;;;6.20;3.30;;;;;;;25.24;38.32;99349.05;109436;1253;59350;-71
2023/06/05 07:22:01;;;;;;;8.60;3.50;;;;;;;25.27;37.64;99350.35;109389;1254;59054;-71
2023/06/05 07:24:30;;;;;;;3.90;2.70;;;;;;;25.19;37.80;99350.27;109426;1254;67182;-71
2023/06/05 07:26:58;;;;;;;4.90;2.80;;;;;;;24.98;37.18;99351.98;109408;1254;60952;-71
2023/06/05 07:29:26;;;;;;;6.20;3.00;;;;;;;24.54;37.29;99349.30;109390;1254;65103;-72
2023/06/05 07:31:55;;;;;;;4.10;3.00;;;;;;;24.13;37.84;99352.62;109393;1254;58996;-72
2023/06/05 07:34:24;;;;;;;4.20;3.20;;;;;;;23.78;38.26;99351.80;109418;1254;59009;-71
2023/06/05 07:36:52;;;;;;;4.60;3.20;;;;;;;23.47;38.85;99349.38;109398;1254;67234;-71
2023/06/05 07:39:20;;;;;;;4.90;3.40;;;;;;;23.33;39.11;99349.33;109400;1254;61262;-71
2023/06/05 07:41:46;;;;;;;6.40;3.40;;;;;;;23.23;39.43;99349.95;109387;1254;64887;-71
2023/06/05 07:44:15;;;;;;;5.70;3.20;;;;;;;23.11;39.80;99353.72;109370;1254;58978;-71
2023/06/05 07:46:43;;;;;;;4.10;2.80;;;;;;;23.09;40.35;99353.02;109435;1253;59113;-72
2023/06/05 07:49:10;;;;;;;4.20;3.30;;;;;;;23.23;40.27;99351.79;109450;1254;65809;-71
2023/06/05 07:51:37;;;;;;;4.40;2.70;;;;;;;23.20;39.78;99351.15;109464;1254;61084;-72
2023/06/05 07:54:06;;;;;;;5.50;3.10;;;;;;;23.11;39.87;99349.52;109428;1253;64562;-71
2023/06/05 07:56:33;;;;;;;6.10;3.40;;;;;;;23.10;39.82;99343.67;109376;1254;59129;-71
2023/06/05 07:59:02;;;;;;;4.50;3.40;;;;;;;23.10;39.85;99340.75;109434;1254;59124;-71
2023/06/05 08:01:30;;;;;;;6.00;2.80;;;;;;;23.00;39.84;99341.48;109394;1254;67156;-71
2023/06/05 08:03:57;;;;;;;6.50;3.20;;;;;;;22.96;40.28;99339.34;109409;1253;59851;-72
2023/06/05 08:06:24;;;;;;;3.90;2.50;;;;;;;22.95;39.97;99341.27;109431;1253;63673;-70
2023/06/05 08:08:51;;;;;;;6.60;3.20;;;;;;;22.94;40.15;99341.05;109377;1254;58974;-71
2023/06/05 08:11:17;;;;;;;5.40;3.50;;;;;;;23.02;40.48;99342.50;109428;1254;58868;-76
2023/06/05 08:13:45;;;;;;;8.10;3.40;;;;;;;23.14;40.65;99337.34;109405;1254;67127;-75
2023/06/05 08:16:12;;;;;;;6.60;3.20;;;;;;;23.33;40.53;99330.13;109428;1254;61096;-75
2023/06/05 08:18:38;;;;;;;5.30;3.10;;;;;;;23.46;40.63;99326.34;109407;1253;65489;-76
2023/06/05 08:21:06;;;;;;;4.00;2.80;;;;;;;23.51;40.52;99329.36;109395;1254;58984;-75
2023/06/05 08:23:32;;;;;;;5.90;2.90;;;;;;;23.54;40.31;99330.57;109383;1254;58873;-75
2023/06/05 08:25:59;;;;;;;5.30;2.90;;;;;;;23.63;40.13;99325.42;109403;1253;65996;-74
2023/06/05 08:28:26;;;;;;;6.20;2.90;;;;;;;23.59;39.31;99331.50;109437;1253;60136;-75
2023/06/05 08:30:52;;;;;;;6.70;2.90;;;;;;;23.50;39.08;99328.76;109402;1254;64104;-75
2023/06/05 08:33:19;;;;;;;7.00;3.10;;;;;;;23.53;39.76;99326.42;109377;1254;58960;-75
2023/06/05 08:35:46;;;;;;;3.70;2.90;;;;;;;23.71;39.91;99324.30;109387;1254;59065;-75
2023/06/05 08:38:13;;;;;;;5.20;2.90;;;;;;;23.89;39.53;99323.79;109422;1254;67252;-74
2023/06/05 08:40:41;;;;;;;6.80;3.10;;;;;;;23.98;39.21;99319.65;109384;1257;61590;-75
2023/06/05 08:43:08;;;;;;;3.70;3.00;;;;;;;24.02;39.10;99318.50;109409;1254;65700;-74
2023/06/05 08:45:36;;;;;;;3.00;2.50;;;;;;;24.08;39.01;99316.18;109385;1254;59214;-75
2023/06/05 08:48:05;;;;;;;5.20;2.80;;;;;;;24.23;38.80;99317.29;109133;1255;58914;-75
2023/06/05 08:50:31;;;;;;;6.90;3.00;;;;;;;24.36;38.36;99317.23;109395;1254;66383;-75
2023/06/05 08:53:02;;;;;;;4.40;2.40;;;;;;;24.39;37.57;99316.98;109429;1254;61064;-75
2023/06/05 08:55:29;;;;;;;5.30;2.80;;;;;;;24.37;37.42;99317.07;109388;1254;64977;-74
2023/06/05 08:57:56;;;;;;;5.70;2.60;;;;;;;24.41;37.35;99319.65;108999;1254;59082;-75
2023/06/05 09:00:23;;;;;;;5.90;2.90;;;;;;;24.38;36.89;99319.92;109400;1254;59087;-75
2023/06/05 09:02:49;;;;;;;2.40;2.10;;;;;;;24.38;36.70;99319.64;109378;1254;67212;-76
2023/06/05 09:05:17;;;;;;;4.70;2.50;;;;;;;24.33;35.75;99324.45;109407;1253;61390;-75
2023/06/05 09:07:44;;;;;;;3.80;2.60;;;;;;;24.21;35.74;99320.73;109355;1254;65449;-76
2023/06/05 09:10:40;;;;;;;3.30;2.40;;;;;;;24.26;35.76;99320.73;109419;1253;59400;-75
2023/06/05 09:13:07;;;;;;;6.60;2.80;;;;;;;24.24;35.39;99323.66;108763;1262;59379;-75
2023/06/05 09:15:34;;;;;;;4.90;2.70;;;;;;;24.16;35.50;99326.67;108690;1264;66096;-75
2023/06/05 09:18:08;;;;;;;3.80;2.50;;;;;;;24.17;35.57;99328.20;108724;1264;60169;-75
2023/06/05 09:20:37;;;;;;;6.00;2.50;;;;;;;24.33;36.13;99325.91;108693;1262;65298;-74
2023/06/05 09:23:26;;;;;;;4.50;2.90;;;;;;;24.52;35.82;99325.44;108717;1262;59416;-75
2023/06/05 09:25:58;;;;;;;5.00;2.80;;;;;;;24.66;35.48;99324.56;108710;1263;59020;-75
2023/06/05 09:28:26;;;;;;;5.40;2.80;;;;;;;24.74;35.05;99322.23;108643;1263;66078;-75
2023/06/05 09:31:03;;;;;;;3.50;2.60;;;;;;;24.82;34.98;99323.31;108708;1263;61254;-75
2023/06/05 09:33:33;;;;;;;5.00;2.20;;;;;;;24.97;35.21;99321.61;108732;1264;65204;-76
2023/06/05 09:36:07;;;;;;;;;;;;;;;25.20;35.10;99315.71;108734;1263;59192;-75
2023/06/05 09:38:36;;;;;;;5.60;2.10;;;;;;;25.28;34.17;99312.29;108712;1264;59061;-75
2023/06/05 09:41:10;;;;;;;4.40;2.60;;;;;;;25.25;34.17;99309.35;108733;1264;67508;-75
2023/06/05 09:43:38;;;;;;;3.20;2.60;;;;;;;25.33;33.81;99309.79;108658;1263;59093;-74
2023/06/05 09:46:12;;;;;;;5.30;2.30;;;;;;;25.30;33.37;99307.41;108683;1265;65125;-74
2023/06/05 09:48:40;;;;;;;9.70;2.60;;;;;;;25.33;33.32;99302.83;108716;1262;59211;-75
2023/06/05 09:51:12;;;;;;;4.80;3.00;;;;;;;25.41;33.47;99302.77;109338;1254;58977;-75
2023/06/05 09:53:42;;;;;;;3.10;2.30;;;;;;;25.50;33.13;99303.41;109022;1253;64969;-75
2023/06/05 09:56:12;;;;;;;6.60;3.60;;;;;;;25.58;33.01;99298.48;109400;1254;61142;-74
2023/06/05 09:58:44;;;;;;;4.10;2.60;;;;;;;25.67;33.36;99294.54;109353;1254;64917;-75
2023/06/05 10:01:15;;;;;;;4.80;2.60;;;;;;;25.77;32.93;99290.65;109387;1254;58982;-75
2023/06/05 10:03:47;;;;;;;3.60;2.40;;;;;;;25.77;32.56;99291.08;109341;1254;59093;-75
2023/06/05 10:06:14;;;;;;;3.80;2.40;;;;;;;25.66;32.24;99295.16;109380;1253;66920;-75
2023/06/05 10:08:41;;;;;;;6.70;2.50;;;;;;;25.54;32.09;99289.65;109391;1254;60820;-75
2023/06/05 10:11:10;;;;;;;3.80;2.40;;;;;;;25.51;32.27;99287.39;109365;1254;64832;-75
2023/06/05 10:13:37;;;;;;;4.60;2.20;;;;;;;25.61;32.82;99283.63;109344;1254;59091;-75
2023/06/05 10:16:04;;;;;;;5.40;2.30;;;;;;;25.82;33.08;99277.13;109360;1254;59045;-75
2023/06/05 10:18:32;;;;;;;3.60;2.40;;;;;;;26.06;32.92;99277.41;108996;1254;66838;-75
2023/06/05 10:20:58;;;;;;;3.10;2.50;;;;;;;26.17;32.54;99278.82;109367;1253;61210;-75
2023/06/05 10:23:26;;;;;;;4.10;2.20;;;;;;;26.16;32.16;99279.50;109365;1254;64202;-75
2023/06/05 10:25:56;;;;;;;6.30;2.80;;;;;;;26.11;31.99;99275.80;109396;1254;59444;-75
2023/06/05 10:28:30;;;;;;;;;;;;;;;26.07;31.88;99274.91;109397;1254;59298;-74
2023/06/05 10:31:16;;;;;;;3.80;2.40;;;;;;;26.05;32.41;99271.65;109369;1254;67129;-74
2023/06/05 10:34:09;;;;;;;3.30;2.60;;;;;;;26.09;32.26;99273.84;109403;1253;60181;-74
2023/06/05 10:36:44;;;;;;;5.40;2.40;;;;;;;26.14;32.28;99272.52;109366;1254;64218;-75
2023/06/05 10:39:13;;;;;;;5.00;2.60;;;;;;;26.26;32.10;99271.50;109363;1253;59206;-74
2023/06/05 10:41:40;;;;;;;3.20;2.70;;;;;;;26.39;32.07;99264.58;109408;1253;58936;-74
2023/06/05 10:44:07;;;;;;;3.90;2.70;;;;;;;26.28;31.73;99269.38;109365;1253;66535;-74
2023/06/05 10:46:37;;;;;;;4.80;2.70;;;;;;;26.18;31.85;99268.50;109401;1253;61134;-74
2023/06/05 10:49:17;;;;;;;2.60;2.40;;;;;;;26.23;31.85;99269.38;109327;1253;65253;-74
2023/06/05 10:51:48;;;;;;;3.50;2.50;;;;;;;26.21;31.54;99263.38;109339;1254;59030;-74
2023/06/05 10:54:21;;;;;;;3.80;2.30;;;;;;;26.19;31.67;99266.22;109366;1253;59107;-74
2023/06/05 10:56:51;;;;;;;3.50;3.10;;;;;;;26.18;31.62;99264.33;109382;1253;67140;-74
2023/06/05 10:59:22;;;;;;;4.80;2.70;;;;;;;26.26;32.06;99261.70;109412;1253;60084;-75
2023/06/05 11:02:04;;;;;;;4.60;2.50;;;;;;;26.35;32.16;99261.44;109409;1253;64817;-73
2023/06/05 11:04:43;;;;;;;4.20;2.70;;;;;;;26.46;32.19;99259.09;109351;1253;58935;-74
2023/06/05 11:07:23;;;;;;;2.80;2.60;;;;;;;26.68;31.75;99262.80;109309;1254;59086;-74
2023/06/05 11:10:01;;;;;;;4.60;2.60;;;;;;;26.92;31.74;99257.18;109363;1253;67269;-74
2023/06/05 11:12:35;;;;;;;4.90;2.50;;;;;;;27.10;31.76;99252.01;109405;1253;59023;-74
2023/06/05 11:15:03;;;;;;;6.20;2.50;;;;;;;27.07;31.63;99255.20;109379;1253;63864;-75
2023/06/05 11:17:38;;;;;;;9.50;2.80;;;;;;;27.04;31.35;99256.15;109349;1253;59084;-74
2023/06/05 11:20:15;;;;;;;3.00;2.60;;;;;;;27.01;31.45;99258.36;109189;1254;58900;-74
2023/06/05 11:23:09;;;;;;;2.60;2.40;;;;;;;27.00;31.19;99257.42;109394;1253;66775;-74
2023/06/05 11:25:36;;;;;;;3.30;2.60;;;;;;;27.01;31.62;99251.60;108784;1261;60366;-74
2023/06/05 11:28:05;;;;;;;5.10;2.70;;;;;;;27.20;31.57;99253.44;108782;1262;65452;-75
2023/06/05 11:30:40;;;;;;;6.30;3.20;;;;;;;27.20;31.19;99253.13;108798;1261;59011;-75
2023/06/05 11:33:08;;;;;;;4.20;3.80;;;;;;;27.23;31.48;99247.60;108804;1261;58893;-75
2023/06/05 11:35:36;;;;;;;4.00;3.00;;;;;;;27.29;31.47;99247.27;108804;1261;67029;-75